Time;durP1;ratioP1;P1;durP2;ratioP2;P2;SDS_P1;SDS_P2;PMS_P1;PMS_P2;Temp;Humidity;BMP_temperature;BMP_pressure;BME280_temperature;BME280_humidity;BME280_pressure;Samples;Min_cycle;Max_cycle;Signal;HPM_P1;HPM_P2
2023/08/14 00:00:32;;;;;;;;;7.00;4.50;;;;;22.69;43.25;100993.13;5028491;28;45321;-66
2023/08/14 00:02:57;;;;;;;;;5.50;5.50;;;;;22.67;43.35;100987.00;5041459;28;45426;-66
2023/08/14 00:05:22;;;;;;;;;5.00;5.00;;;;;22.65;43.16;100983.56;5041443;28;45313;-66
2023/08/14 00:07:48;;;;;;;;;6.75;5.00;;;;;22.63;43.38;100975.63;5041587;28;45412;-66
2023/08/14 00:10:13;;;;;;;;;4.25;4.25;;;;;22.59;43.69;100963.38;5041213;28;45143;-66
2023/08/14 00:12:39;;;;;;;;;5.75;4.00;;;;;22.59;43.38;100971.41;5041218;28;45418;-66
2023/08/14 00:15:04;;;;;;;;;6.25;4.50;;;;;22.57;43.49;100986.69;5041456;28;45130;-65
2023/08/14 00:17:30;;;;;;;;;7.00;5.00;;;;;22.54;43.66;100986.88;5041357;28;45572;-65
2023/08/14 00:19:55;;;;;;;;;8.00;6.75;;;;;22.52;43.56;100976.25;5038626;28;49056;-65
2023/08/14 00:22:20;;;;;;;;;7.00;7.00;;;;;22.50;43.94;100962.13;5028911;28;49790;-66
2023/08/14 00:24:45;;;;;;;;;6.25;5.50;;;;;22.47;43.89;100951.59;5003590;28;45261;-65
2023/08/14 00:27:11;;;;;;;;;10.25;7.00;;;;;22.45;43.74;100949.97;5021042;28;45982;-65
2023/08/14 00:29:36;;;;;;;;;6.00;5.25;;;;;22.42;44.12;100944.81;5003214;28;46510;-65
2023/08/14 00:32:02;;;;;;;;;6.00;4.00;;;;;22.40;43.88;100951.13;5021498;28;45218;-65
2023/08/14 00:34:27;;;;;;;;;6.00;4.50;;;;;22.38;44.24;100960.19;5003351;28;45440;-65
2023/08/14 00:36:53;;;;;;;;;8.00;6.50;;;;;22.37;43.98;100964.66;5021350;28;45278;-65
2023/08/14 00:39:18;;;;;;;;;3.75;3.75;;;;;22.34;44.09;100950.56;5020906;28;46039;-65
2023/08/14 00:41:43;;;;;;;;;4.50;4.50;;;;;22.32;43.71;100942.63;5020728;28;45329;-65
2023/08/14 00:44:09;;;;;;;;;7.00;5.50;;;;;22.31;44.43;100940.06;5019812;28;45585;-65
2023/08/14 00:46:34;;;;;;;;;6.75;5.75;;;;;22.29;44.26;100932.13;5021027;28;45475;-65
2023/08/14 00:49:00;;;;;;;;;6.50;5.50;;;;;22.27;44.44;100935.84;5019298;28;46949;-65
2023/08/14 00:51:26;;;;;;;;;7.25;6.00;;;;;22.21;44.26;100927.25;5019658;28;45297;-65
2023/08/14 00:53:53;;;;;;;;;4.50;4.50;;;;;22.23;44.24;100921.78;5003074;28;45289;-65
2023/08/14 00:56:20;;;;;;;;;8.75;6.25;;;;;22.21;44.45;100921.91;5020658;28;45465;-66
2023/08/14 00:58:47;;;;;;;;;6.25;5.25;;;;;22.19;44.55;100937.16;5025714;28;47009;-65
2023/08/14 01:01:12;;;;;;;;;7.75;4.75;;;;;22.18;44.51;100934.59;5040698;28;45253;-65
2023/08/14 01:03:39;;;;;;;;;9.25;5.50;;;;;22.17;44.29;100940.88;5040392;28;45440;-65
2023/08/14 01:06:04;;;;;;;;;11.00;7.00;;;;;22.16;44.45;100933.81;5040663;28;45508;-65
2023/08/14 01:08:30;;;;;;;;;8.00;6.75;;;;;22.15;44.45;100926.72;5040313;28;46019;-65
2023/08/14 01:11:07;;;;;;;;;5.00;5.00;;;;;22.14;44.30;100930.34;5040362;28;45304;-65
2023/08/14 01:13:46;;;;;;;;;7.75;7.00;;;;;22.07;44.59;100925.41;5040553;28;45440;-66
2023/08/14 01:16:19;;;;;;;;;9.50;7.00;;;;;22.12;44.61;100934.97;5040329;28;45218;-65
2023/08/14 01:18:46;;;;;;;;;6.00;6.00;;;;;22.09;44.72;100930.66;5040442;28;45397;-65
2023/08/14 01:21:14;;;;;;;;;7.00;4.50;;;;;22.10;44.72;100932.38;5040081;28;45262;-65
2023/08/14 01:24:02;;;;;;;;;7.75;7.25;;;;;22.09;44.63;100925.31;5040339;28;45337;-65
2023/08/14 01:26:28;;;;;;;;;4.00;4.00;;;;;22.07;45.13;100920.06;5039792;28;45265;-65
2023/08/14 01:28:55;;;;;;;;;6.75;4.50;;;;;22.07;44.72;100919.16;5038856;28;46917;-65
2023/08/14 01:31:20;;;;;;;;;5.25;3.50;;;;;22.05;44.77;100921.09;5039984;28;45376;-65
2023/08/14 01:33:46;;;;;;;;;3.25;3.25;;;;;22.04;44.92;100927.41;5040276;28;45439;-65
2023/08/14 01:36:20;;;;;;;;;5.75;4.00;;;;;22.03;44.77;100931.88;5040169;28;45653;-65
2023/08/14 01:39:08;;;;;;;;;7.25;7.00;;;;;22.02;44.97;100930.13;5039231;28;45331;-65
2023/08/14 01:42:08;;;;;;;;;7.50;6.25;;;;;22.02;44.97;100926.63;5039626;28;45451;-65
2023/08/14 01:44:37;;;;;;;;;6.50;4.75;;;;;21.99;44.88;100924.97;5040079;28;45353;-65
2023/08/14 01:47:06;;;;;;;;;5.00;4.25;;;;;22.00;45.23;100924.03;5039864;28;45264;-65
2023/08/14 01:49:33;;;;;;;;;8.25;5.50;;;;;21.98;45.19;100936.63;5038717;28;45552;-65
2023/08/14 01:51:59;;;;;;;;;6.25;5.00;;;;;22.00;45.14;100928.50;5039820;28;45360;-65
2023/08/14 01:54:25;;;;;;;;;8.25;7.25;;;;;21.98;45.16;100931.28;5039980;28;45314;-65
2023/08/14 01:56:50;;;;;;;;;5.00;5.00;;;;;21.96;45.59;100924.28;5039336;28;45242;-65
2023/08/14 01:59:15;;;;;;;;;6.00;6.00;;;;;21.95;45.17;100920.78;5018553;28;46783;-65
2023/08/14 02:01:41;;;;;;;;;6.00;5.00;;;;;21.95;45.27;100927.91;5032749;28;45247;-65
2023/08/14 02:04:07;;;;;;;;;4.25;4.00;;;;;21.95;45.44;100919.91;5036597;28;45242;-65
2023/08/14 02:06:33;;;;;;;;;6.00;5.00;;;;;21.90;45.51;100923.72;5039807;28;45246;-65
2023/08/14 02:08:58;;;;;;;;;6.00;4.25;;;;;21.91;45.42;100921.88;5039695;28;45407;-65
2023/08/14 02:11:23;;;;;;;;;7.50;7.25;;;;;21.90;45.35;100913.00;5039299;28;45361;-65
2023/08/14 02:13:49;;;;;;;;;7.75;6.00;;;;;21.89;45.64;100899.72;5039736;28;45304;-65
2023/08/14 02:16:14;;;;;;;;;8.25;4.75;;;;;21.88;45.24;100896.19;5039626;28;45834;-65
2023/08/14 02:18:39;;;;;;;;;11.00;9.00;;;;;21.89;45.63;100889.88;5039303;28;51946;-65
2023/08/14 02:21:04;;;;;;;;;7.75;6.00;;;;;21.88;45.29;100900.69;5039423;28;45438;-66
2023/08/14 02:23:30;;;;;;;;;5.00;5.00;;;;;21.86;45.51;100905.25;5021451;28;45320;-65
2023/08/14 02:25:56;;;;;;;;;6.25;4.00;;;;;21.86;45.78;100908.81;5038734;28;45329;-65
2023/08/14 02:28:21;;;;;;;;;5.50;4.50;;;;;21.86;45.49;100918.63;5039301;28;45382;-65
2023/08/14 02:30:47;;;;;;;;;5.75;5.75;;;;;21.85;45.42;100919.59;5039549;28;45284;-66
2023/08/14 02:33:12;;;;;;;;;5.25;3.00;;;;;21.84;45.38;100917.88;5039554;28;45439;-65
2023/08/14 02:35:38;;;;;;;;;7.25;5.00;;;;;21.82;45.50;100896.53;5038922;28;53735;-65
2023/08/14 02:38:08;;;;;;;;;6.25;4.50;;;;;21.82;45.81;100883.16;5039246;28;46237;-65
2023/08/14 02:40:34;;;;;;;;;4.25;3.75;;;;;21.81;45.66;100885.94;5039138;28;45763;-65
2023/08/14 02:43:01;;;;;;;;;6.75;3.25;;;;;21.80;45.66;100878.88;5039229;28;45313;-65
2023/08/14 02:45:27;;;;;;;;;4.00;4.00;;;;;21.78;45.93;100876.28;5039165;28;45320;-65
2023/08/14 02:47:52;;;;;;;;;5.25;3.25;;;;;21.75;45.85;100868.47;5039223;28;46139;-66
2023/08/14 02:50:17;;;;;;;;;3.75;3.75;;;;;21.75;45.81;100863.97;5039016;28;45343;-66
2023/08/14 02:52:43;;;;;;;;;4.25;3.00;;;;;21.73;45.89;100856.97;5038047;28;45269;-65
2023/08/14 02:55:08;;;;;;;;;5.50;3.50;;;;;21.71;45.98;100849.06;5037709;28;45461;-65
2023/08/14 02:57:33;;;;;;;;;3.25;3.00;;;;;21.70;46.03;100860.69;5038932;28;45258;-65
2023/08/14 02:59:59;;;;;;;;;4.00;2.25;;;;;21.65;45.92;100864.63;5037051;28;45262;-65
2023/08/14 03:02:24;;;;;;;;;3.00;3.00;;;;;21.66;46.10;100856.50;5021868;28;45176;-65
2023/08/14 03:04:50;;;;;;;;;5.75;4.50;;;;;21.63;45.47;100853.97;5038968;28;45251;-65
2023/08/14 03:07:15;;;;;;;;;3.25;3.25;;;;;21.60;45.75;100846.16;5037897;28;47877;-65
2023/08/14 03:09:41;;;;;;;;;2.75;2.75;;;;;21.61;45.72;100861.25;5038908;28;45416;-65
2023/08/14 03:12:06;;;;;;;;;5.75;2.50;;;;;21.59;45.59;100865.81;5038530;28;46687;-65
2023/08/14 03:14:31;;;;;;;;;3.25;3.25;;;;;21.56;45.59;100861.50;5039832;28;45214;-65
2023/08/14 03:16:57;;;;;;;;;4.75;3.00;;;;;21.55;46.12;100857.13;5042069;28;54586;-65
2023/08/14 03:19:22;;;;;;;;;4.50;4.50;;;;;21.54;46.02;100858.03;5042353;28;45198;-65
2023/08/14 03:21:50;;;;;;;;;5.75;4.00;;;;;21.52;45.70;100849.25;5042246;28;45412;-65
2023/08/14 03:24:16;;;;;;;;;2.00;2.00;;;;;21.51;45.59;100854.66;5042303;28;45377;-65
2023/08/14 03:26:42;;;;;;;;;3.25;3.00;;;;;21.47;45.71;100850.47;5023805;28;46222;-65
2023/08/14 03:29:07;;;;;;;;;7.00;4.00;;;;;21.45;46.08;100847.03;5042212;28;45451;-65
2023/08/14 03:31:33;;;;;;;;;3.00;3.00;;;;;21.44;46.32;100848.81;5042328;28;45451;-65
2023/08/14 03:33:59;;;;;;;;;3.75;2.25;;;;;21.43;45.53;100842.63;5042065;28;45419;-65
2023/08/14 03:36:24;;;;;;;;;4.50;3.00;;;;;21.42;46.17;100842.69;5041346;28;45171;-65
2023/08/14 03:38:49;;;;;;;;;4.00;3.00;;;;;21.40;45.92;100858.84;5024094;28;45294;-65
2023/08/14 03:41:15;;;;;;;;;5.50;3.50;;;;;21.40;45.67;100856.16;5041999;28;45348;-65
2023/08/14 03:43:40;;;;;;;;;4.00;4.00;;;;;21.38;45.89;100852.72;5023837;28;45393;-65
2023/08/14 03:46:05;;;;;;;;;4.00;3.00;;;;;21.36;46.06;100851.09;5041709;28;49623;-65
2023/08/14 03:48:31;;;;;;;;;5.75;4.00;;;;;21.35;46.31;100849.38;5041814;28;45244;-65
2023/08/14 03:50:56;;;;;;;;;3.50;3.50;;;;;21.33;46.17;100846.75;5042160;28;45495;-65
2023/08/14 03:53:21;;;;;;;;;6.50;4.75;;;;;21.32;46.01;100837.06;5041698;28;45494;-65
2023/08/14 03:55:48;;;;;;;;;6.25;4.00;;;;;21.31;46.41;100838.00;5041383;28;46313;-65
2023/08/14 03:58:13;;;;;;;;;5.00;3.50;;;;;21.30;45.76;100836.28;5041681;28;45508;-65
2023/08/14 04:00:39;;;;;;;;;3.00;3.00;;;;;21.29;46.28;100831.88;5032829;28;45755;-65
2023/08/14 04:03:04;;;;;;;;;6.50;3.00;;;;;21.29;46.26;100826.53;5029878;28;45503;-65
2023/08/14 04:05:30;;;;;;;;;3.25;3.00;;;;;21.27;46.33;100828.44;5041639;28;46336;-65
2023/08/14 04:07:55;;;;;;;;;5.75;3.25;;;;;21.25;46.22;100836.53;5041566;28;45372;-65
2023/08/14 04:10:20;;;;;;;;;3.00;3.00;;;;;21.25;46.15;100846.38;5041463;28;45470;-65
2023/08/14 04:12:46;;;;;;;;;3.00;3.00;;;;;21.22;46.03;100846.53;5037366;28;46584;-65
2023/08/14 04:15:15;;;;;;;;;3.25;3.25;;;;;21.24;46.55;100852.66;5034064;28;46128;-65
2023/08/14 04:17:41;;;;;;;;;6.00;4.50;;;;;21.21;46.22;100855.50;5020163;28;46284;-65
2023/08/14 04:20:07;;;;;;;;;8.00;5.50;;;;;21.20;46.37;100849.28;5021800;28;45299;-65
2023/08/14 04:22:32;;;;;;;;;5.00;3.50;;;;;21.18;46.33;100842.31;5003309;28;45408;-65
2023/08/14 04:24:57;;;;;;;;;3.75;3.75;;;;;21.16;46.36;100847.75;5020789;28;45228;-65
2023/08/14 04:27:23;;;;;;;;;8.25;4.25;;;;;21.14;46.30;100846.97;5021116;28;45275;-65
2023/08/14 04:29:48;;;;;;;;;4.00;4.00;;;;;21.13;46.52;100853.28;5021315;28;47623;-65
2023/08/14 04:32:13;;;;;;;;;4.25;3.75;;;;;21.13;46.27;100849.72;5021327;28;45497;-65
2023/08/14 04:34:39;;;;;;;;;5.00;3.75;;;;;21.11;46.68;100848.00;5021127;28;45606;-65
2023/08/14 04:37:05;;;;;;;;;5.75;4.25;;;;;21.11;46.39;100852.50;5020781;28;53826;-65
2023/08/14 04:39:30;;;;;;;;;4.75;3.75;;;;;21.09;46.18;100843.69;5021304;28;45336;-65
2023/08/14 04:41:55;;;;;;;;;4.00;4.00;;;;;21.07;46.58;100851.81;5020562;28;45391;-65
2023/08/14 04:44:20;;;;;;;;;7.00;5.00;;;;;21.05;46.43;100853.69;5020924;28;52713;-65
2023/08/14 04:46:47;;;;;;;;;4.50;4.50;;;;;21.05;46.79;100853.69;5020925;28;45350;-65
2023/08/14 04:49:13;;;;;;;;;6.00;5.00;;;;;21.04;46.46;100848.44;5021417;28;45258;-65
2023/08/14 04:51:38;;;;;;;;;5.25;3.75;;;;;21.00;46.70;100842.41;5020956;28;45495;-65
2023/08/14 04:54:04;;;;;;;;;5.50;5.50;;;;;21.01;46.19;100844.13;5020963;28;47342;-65
2023/08/14 04:56:30;;;;;;;;;5.75;3.50;;;;;20.98;46.33;100843.44;5020517;28;45325;-65
2023/08/14 04:58:56;;;;;;;;;6.75;4.50;;;;;20.98;46.85;100841.66;5027676;28;45255;-65
2023/08/14 05:01:22;;;;;;;;;3.25;3.25;;;;;20.96;46.32;100843.53;5040753;28;45440;-65
2023/08/14 05:03:47;;;;;;;;;6.00;4.75;;;;;20.96;47.00;100840.88;5040537;28;45206;-65
2023/08/14 05:06:13;;;;;;;;;3.50;3.50;;;;;20.94;46.79;100835.63;5040761;28;45242;-65
2023/08/14 05:08:38;;;;;;;;;23.00;19.50;;;;;20.93;46.85;100857.94;5040688;28;45897;-65
2023/08/14 05:11:03;;;;;;;;;5.75;3.75;;;;;20.94;46.77;100858.78;5040355;28;45230;-65
2023/08/14 05:13:29;;;;;;;;;6.00;5.75;;;;;20.94;46.54;100848.97;5040285;28;46113;-65
2023/08/14 05:15:55;;;;;;;;;8.00;4.75;;;;;20.90;46.67;100850.06;5040604;28;45366;-65
2023/08/14 05:18:21;;;;;;;;;5.00;4.50;;;;;20.90;46.69;100855.41;5040455;28;45334;-65
2023/08/14 05:20:47;;;;;;;;;5.75;4.25;;;;;20.91;46.61;100848.28;5040321;28;45419;-65
2023/08/14 05:23:14;;;;;;;;;3.00;3.00;;;;;20.90;46.72;100851.88;5022034;28;45468;-65
2023/08/14 05:25:41;;;;;;;;;6.00;4.75;;;;;20.90;46.59;100851.88;5039964;28;45555;-65
2023/08/14 05:28:07;;;;;;;;;5.75;4.50;;;;;20.90;46.59;100851.88;5022478;28;45259;-65
2023/08/14 05:30:32;;;;;;;;;3.75;3.75;;;;;20.89;46.67;100850.16;5040244;28;45262;-66
2023/08/14 05:32:58;;;;;;;;;5.00;5.00;;;;;20.89;46.80;100847.50;5040086;28;46285;-65
2023/08/14 05:35:24;;;;;;;;;7.00;7.00;;;;;20.86;47.04;100843.19;5040341;28;45225;-65
2023/08/14 05:37:52;;;;;;;;;5.50;5.00;;;;;20.89;46.71;100835.03;5038717;28;45403;-65
2023/08/14 05:40:20;;;;;;;;;8.00;5.75;;;;;20.89;47.32;100834.13;5039806;28;45266;-65
2023/08/14 05:43:03;;;;;;;;;8.00;6.00;;;;;20.89;46.80;100837.69;5039989;28;45306;-65
2023/08/14 05:45:28;;;;;;;;;4.25;4.25;;;;;20.91;46.94;100832.25;5039857;28;45258;-65
2023/08/14 05:47:54;;;;;;;;;7.75;4.75;;;;;20.91;46.96;100835.78;5040102;28;45246;-65
2023/08/14 05:50:21;;;;;;;;;4.00;3.00;;;;;20.91;46.89;100835.78;5022069;28;45837;-65
2023/08/14 05:52:46;;;;;;;;;6.50;5.25;;;;;20.91;47.40;100832.25;5038573;28;48511;-65
2023/08/14 05:55:12;;;;;;;;;4.75;4.75;;;;;20.91;47.25;100829.59;5021394;28;45300;-65
2023/08/14 05:57:37;;;;;;;;;7.50;4.25;;;;;20.93;46.92;100827.69;5040120;28;45557;-65
2023/08/14 06:00:03;;;;;;;;;34.75;27.25;;;;;20.85;47.03;100811.22;5039378;28;52523;-65
2023/08/14 06:02:29;;;;;;;;;6.75;3.50;;;;;20.94;46.90;100821.38;5039562;28;46698;-66
2023/08/14 06:04:54;;;;;;;;;19.00;13.75;;;;;20.94;46.81;100822.25;5039407;28;45325;-65
2023/08/14 06:07:19;;;;;;;;;7.75;7.00;;;;;20.96;46.96;100821.31;5040096;28;45367;-65
2023/08/14 06:09:45;;;;;;;;;7.75;5.50;;;;;20.94;47.12;100827.59;5039673;28;45282;-65
2023/08/14 06:12:10;;;;;;;;;7.00;5.00;;;;;20.91;47.31;100822.41;5039373;28;45971;-65
2023/08/14 06:14:36;;;;;;;;;5.25;4.00;;;;;20.94;47.52;100837.41;5039779;28;45326;-65
2023/08/14 06:17:01;;;;;;;;;4.25;3.50;;;;;20.93;47.47;100836.56;5038430;28;45374;-65
2023/08/14 06:19:27;;;;;;;;;5.25;4.75;;;;;20.94;47.35;100832.06;5039626;28;45363;-65
2023/08/14 06:21:54;;;;;;;;;6.50;4.75;;;;;20.95;47.26;100831.13;5039150;28;46546;-65
2023/08/14 06:24:21;;;;;;;;;8.00;6.25;;;;;20.95;47.75;100836.47;5039681;28;45226;-65
2023/08/14 06:26:46;;;;;;;;;7.00;5.00;;;;;20.93;47.37;100836.56;5027632;28;45273;-65
2023/08/14 06:29:11;;;;;;;;;4.25;4.00;;;;;20.95;47.50;100839.13;5023381;28;45242;-65
2023/08/14 06:31:37;;;;;;;;;7.00;5.00;;;;;20.90;47.14;100823.34;5017249;28;61527;-65
2023/08/14 06:34:02;;;;;;;;;3.00;3.00;;;;;20.96;47.57;100827.50;5019442;28;45170;-65
2023/08/14 06:36:27;;;;;;;;;6.00;3.50;;;;;20.96;47.89;100837.34;5019669;28;45234;-65
2023/08/14 06:38:53;;;;;;;;;4.00;4.00;;;;;20.97;47.25;100837.25;5019327;28;45345;-65
2023/08/14 06:41:18;;;;;;;;;2.25;2.25;;;;;20.94;47.53;100829.41;5019390;28;46104;-65
2023/08/14 06:43:45;;;;;;;;;6.75;5.00;;;;;20.97;47.57;100831.03;5026864;28;45413;-65
2023/08/14 06:46:10;;;;;;;;;5.25;5.00;;;;;20.97;47.29;100834.59;5019395;28;45270;-65
2023/08/14 06:48:35;;;;;;;;;6.50;5.00;;;;;20.98;47.33;100830.97;5019102;28;45410;-65
2023/08/14 06:51:01;;;;;;;;;5.75;3.75;;;;;20.98;47.47;100830.97;5022510;28;47069;-65
2023/08/14 06:53:26;;;;;;;;;4.00;3.50;;;;;21.00;47.46;100837.06;5022714;28;45389;-65
2023/08/14 06:55:51;;;;;;;;;7.00;4.75;;;;;20.94;47.83;100821.38;5022427;28;45317;-65
2023/08/14 06:58:16;;;;;;;;;3.25;3.25;;;;;20.98;47.75;100833.63;5022656;28;46276;-65
2023/08/14 07:00:42;;;;;;;;;7.25;3.75;;;;;21.00;47.65;100839.75;5042725;28;46012;-65
2023/08/14 07:03:07;;;;;;;;;2.50;2.00;;;;;21.04;47.58;100852.00;5042299;28;45455;-65
2023/08/14 07:05:32;;;;;;;;;3.00;3.00;;;;;21.04;48.02;100853.78;5042833;28;45394;-65
2023/08/14 07:07:58;;;;;;;;;5.00;3.00;;;;;21.03;47.84;100842.25;5042335;28;47446;-65
2023/08/14 07:10:23;;;;;;;;;3.50;2.75;;;;;21.06;48.11;100850.06;5042321;28;45305;-65
2023/08/14 07:12:48;;;;;;;;;5.00;3.25;;;;;21.05;47.78;100851.03;5042282;28;45407;-65
2023/08/14 07:15:14;;;;;;;;;4.00;2.75;;;;;21.09;47.57;100852.59;5024601;28;45357;-65
2023/08/14 07:17:39;;;;;;;;;5.00;3.00;;;;;21.08;47.66;100850.88;5042224;28;46281;-65
2023/08/14 07:20:05;;;;;;;;;4.50;2.75;;;;;21.13;48.16;100853.28;5042363;28;46080;-65
2023/08/14 07:22:31;;;;;;;;;7.75;5.00;;;;;21.14;47.69;100843.44;5042003;28;45253;-65
2023/08/14 07:24:56;;;;;;;;;7.00;3.00;;;;;21.18;48.07;100845.88;5042298;28;45192;-65
2023/08/14 07:27:22;;;;;;;;;3.25;3.00;;;;;21.22;48.09;100847.41;5041810;28;45415;-65
2023/08/14 07:29:47;;;;;;;;;3.00;2.00;;;;;21.25;48.04;100851.72;5042131;28;46116;-65
2023/08/14 07:32:12;;;;;;;;;2.25;2.25;;;;;21.30;48.03;100848.78;5042241;28;45219;-65
2023/08/14 07:34:38;;;;;;;;;4.75;3.00;;;;;21.37;48.25;100850.13;5042003;28;46516;-65
2023/08/14 07:37:03;;;;;;;;;3.50;3.50;;;;;21.38;47.92;100850.06;5041994;28;45514;-65
2023/08/14 07:39:30;;;;;;;;;4.25;3.50;;;;;21.47;48.33;100850.47;5042088;28;45178;-65
2023/08/14 07:41:56;;;;;;;;;3.50;3.50;;;;;21.50;48.05;100858.31;5041483;28;45424;-65
2023/08/14 07:44:21;;;;;;;;;6.00;3.00;;;;;21.55;48.16;100861.56;5042076;28;45448;-65
2023/08/14 07:46:46;;;;;;;;;5.75;2.50;;;;;21.58;48.01;100859.63;5034000;28;45428;-65
2023/08/14 07:49:12;;;;;;;;;4.00;4.00;;;;;21.65;48.10;100852.09;5022058;28;46292;-65
2023/08/14 07:51:37;;;;;;;;;3.25;3.00;;;;;21.70;48.04;100854.50;5021955;28;45262;-65
2023/08/14 07:54:03;;;;;;;;;4.00;4.00;;;;;21.76;48.22;100851.47;5022312;28;45294;-65
2023/08/14 07:56:28;;;;;;;;;3.00;3.00;;;;;21.83;47.63;100849.28;5021593;28;45275;-65
2023/08/14 07:58:53;;;;;;;;;4.00;2.00;;;;;21.87;47.92;100848.13;5027720;28;53154;-65
2023/08/14 08:01:19;;;;;;;;;7.00;3.25;;;;;21.94;48.12;100844.16;5041282;28;45449;-65
2023/08/14 08:03:44;;;;;;;;;5.50;3.00;;;;;22.02;47.73;100846.34;5041394;28;45412;-65
2023/08/14 08:06:09;;;;;;;;;5.50;4.25;;;;;22.08;47.70;100845.97;5041603;28;50270;-65
2023/08/14 08:08:34;;;;;;;;;5.50;5.00;;;;;22.13;47.73;100838.53;5041484;28;45428;-65
2023/08/14 08:11:00;;;;;;;;;5.00;3.50;;;;;22.23;47.68;100846.84;5041240;28;45231;-65
2023/08/14 08:13:25;;;;;;;;;5.00;4.00;;;;;;;;5040684;28;45530;-65
2023/08/14 08:15:50;;;;;;;;;4.75;4.00;;;;;22.36;48.22;100844.28;5041425;28;45531;-65
2023/08/14 08:18:16;;;;;;;;;3.75;3.50;;;;;22.42;47.88;100843.94;5041262;28;45616;-65
2023/08/14 08:20:41;;;;;;;;;3.00;3.00;;;;;22.49;48.21;100841.72;5041573;28;45297;-65
2023/08/14 08:23:06;;;;;;;;;3.25;2.00;;;;;22.54;47.92;100831.56;5041155;28;45301;-65
2023/08/14 08:25:32;;;;;;;;;5.75;5.00;;;;;22.59;47.81;100832.16;5040952;28;45534;-65
2023/08/14 08:27:57;;;;;;;;;2.00;2.00;;;;;22.66;48.03;100836.16;5040951;28;45967;-65
2023/08/14 08:30:23;;;;;;;;;2.00;2.00;;;;;22.75;47.84;100836.53;5041382;28;45265;-65
2023/08/14 08:32:48;;;;;;;;;5.75;4.00;;;;;22.76;47.99;100830.22;5041179;28;45389;-65
2023/08/14 08:35:13;;;;;;;;;6.25;5.00;;;;;22.87;48.26;100841.13;5040997;28;45550;-66
2023/08/14 08:37:39;;;;;;;;;5.50;4.25;;;;;22.93;48.27;100829.13;5041024;28;46304;-66
2023/08/14 08:40:06;;;;;;;;;4.25;2.50;;;;;22.98;47.95;100833.25;5040770;28;45370;-66
2023/08/14 08:42:31;;;;;;;;;5.00;3.00;;;;;23.04;47.93;100838.19;5041107;28;45345;-66
2023/08/14 08:44:59;;;;;;;;;4.75;4.75;;;;;23.07;47.86;100831.78;5040906;28;45440;-66
2023/08/14 08:47:29;;;;;;;;;5.00;3.75;;;;;23.11;47.83;100827.94;5040849;28;46259;-65
2023/08/14 08:49:54;;;;;;;;;4.50;2.75;;;;;23.18;47.86;100842.69;5040898;28;45322;-66
2023/08/14 08:52:20;;;;;;;;;4.50;3.25;;;;;23.23;47.86;100822.75;5040910;28;45435;-65
2023/08/14 08:54:47;;;;;;;;;2.25;2.25;;;;;23.28;47.44;100826.84;5040786;28;45463;-65
2023/08/14 08:57:14;;;;;;;;;6.00;4.00;;;;;23.33;47.72;100814.00;5040082;28;46027;-65
2023/08/14 08:59:40;;;;;;;;;2.75;2.75;;;;;23.36;47.65;100808.41;5040723;28;45218;-65
2023/08/14 09:02:06;;;;;;;;;2.50;2.50;;;;;23.45;47.80;100814.13;5040660;28;45235;-66
2023/08/14 09:04:31;;;;;;;;;4.25;2.50;;;;;23.51;47.66;100805.69;5040723;28;45482;-66
2023/08/14 09:06:56;;;;;;;;;4.00;4.00;;;;;23.57;47.55;100810.63;5040333;28;46086;-65
2023/08/14 09:09:22;;;;;;;;;5.50;2.25;;;;;23.64;47.68;100811.06;5040775;28;45301;-65
2023/08/14 09:11:47;;;;;;;;;4.50;4.25;;;;;23.71;47.88;100801.66;5038996;28;45357;-66
2023/08/14 09:14:13;;;;;;;;;4.25;4.00;;;;;23.75;47.62;100792.41;5040566;28;45203;-65
2023/08/14 09:16:38;;;;;;;;;3.00;2.25;;;;;23.83;47.76;100797.25;5040293;28;45337;-65
2023/08/14 09:19:03;;;;;;;;;4.50;4.50;;;;;23.91;47.67;100791.34;5040718;28;45281;-65
2023/08/14 09:21:30;;;;;;;;;3.00;2.75;;;;;23.98;47.60;100798.88;5040154;28;49528;-65
2023/08/14 09:23:58;;;;;;;;;3.00;3.00;;;;;24.03;47.17;100795.88;5039207;28;45438;-65
2023/08/14 09:26:25;;;;;;;;;5.50;4.00;;;;;24.11;47.62;100798.91;5039869;28;45337;-65
2023/08/14 09:28:52;;;;;;;;;6.00;5.00;;;;;24.18;47.35;100793.94;5040403;28;45238;-65
2023/08/14 09:31:17;;;;;;;;;4.50;3.00;;;;;24.28;47.51;100799.53;5037377;28;45471;-66
2023/08/14 09:33:44;;;;;;;;;5.00;3.00;;;;;24.33;47.26;100790.16;5028682;28;45190;-66
2023/08/14 09:36:11;;;;;;;;;5.00;3.25;;;;;24.42;47.78;100788.63;5002131;28;46977;-65
2023/08/14 09:38:37;;;;;;;;;4.50;3.50;;;;;24.53;47.71;100795.94;5020184;28;45298;-66
2023/08/14 09:41:03;;;;;;;;;6.00;4.50;;;;;24.63;47.14;100804.19;5019671;28;45516;-66
2023/08/14 09:43:30;;;;;;;;;4.25;3.75;;;;;24.71;47.22;100790.22;5020137;28;45463;-66
2023/08/14 09:45:57;;;;;;;;;3.00;3.00;;;;;24.81;47.15;100785.88;5019803;28;47379;-66
2023/08/14 09:48:37;;;;;;;;;7.50;4.50;;;;;24.90;47.49;100793.25;5020130;28;45441;-66
2023/08/14 09:51:03;;;;;;;;;4.00;4.00;;;;;24.99;47.34;100791.72;5020470;28;45326;-66
2023/08/14 09:53:28;;;;;;;;;2.25;1.75;;;;;25.08;47.60;100782.97;5001968;28;45440;-66
2023/08/14 09:55:54;;;;;;;;;3.00;3.00;;;;;25.18;47.59;100783.13;5019735;28;46130;-64
2023/08/14 09:58:20;;;;;;;;;5.00;4.00;;;;;25.28;47.32;100786.84;5021433;28;45238;-64
2023/08/14 10:00:48;;;;;;;;;3.00;2.00;;;;;25.39;47.33;100782.53;5039945;28;45351;-64
2023/08/14 10:03:15;;;;;;;;;5.25;4.00;;;;;25.50;47.21;100779.88;5039468;28;45404;-64
2023/08/14 10:05:41;;;;;;;;;4.75;3.75;;;;;25.62;47.13;100776.25;5039551;28;45442;-64
2023/08/14 10:08:08;;;;;;;;;4.00;3.50;;;;;25.80;47.71;100773.09;5039430;28;45321;-64
2023/08/14 10:10:37;;;;;;;;;5.25;3.75;;;;;25.99;47.66;100777.00;5039668;28;45278;-64
2023/08/14 10:13:07;;;;;;;;;4.00;3.25;;;;;26.21;47.59;100777.06;5039402;28;45495;-64
2023/08/14 10:15:37;;;;;;;;;4.50;3.00;;;;;26.43;47.65;100760.03;5039498;28;47163;-65
2023/08/14 10:18:16;;;;;;;;;3.25;2.00;;;;;26.77;47.27;100775.31;5039382;28;45246;-65
2023/08/14 10:20:44;;;;;;;;;2.75;2.50;;;;;27.07;47.78;100762.97;5039719;28;45333;-66
2023/08/14 10:23:11;;;;;;;;;4.00;2.25;;;;;27.42;47.37;100772.63;5039063;28;45412;-64
2023/08/14 10:25:38;;;;;;;;;3.50;2.25;;;;;27.78;47.70;100767.75;5039121;28;45237;-66
2023/08/14 10:28:05;;;;;;;;;5.00;4.00;;;;;28.14;47.38;100768.25;5038015;28;45294;-66
2023/08/14 10:30:31;;;;;;;;;4.50;4.00;;;;;28.55;47.46;100762.81;5039631;28;45256;-66
2023/08/14 10:32:57;;;;;;;;;2.75;1.75;;;;;28.96;47.29;100765.50;5039295;28;45278;-66
2023/08/14 10:35:23;;;;;;;;;3.00;3.00;;;;;29.37;46.98;100770.78;5039177;28;45376;-66
2023/08/14 10:37:49;;;;;;;;;4.50;4.25;;;;;29.79;46.74;100763.16;5038241;28;45442;-66
2023/08/14 10:40:17;;;;;;;;;2.50;2.00;;;;;30.22;46.56;100760.03;5039111;28;45297;-66
2023/08/14 10:42:50;;;;;;;;;5.75;4.50;;;;;30.67;46.56;100758.38;5024583;28;45480;-66
2023/08/14 10:45:16;;;;;;;;;1.25;0.75;;;;;31.11;46.10;100758.53;5024754;28;45470;-66
2023/08/14 10:47:42;;;;;;;;;4.00;4.00;;;;;31.58;45.91;100754.63;5019337;28;45338;-66
2023/08/14 10:50:22;;;;;;;;;4.00;4.00;;;;;32.03;45.24;100758.16;5019509;28;45202;-66
2023/08/14 10:52:50;;;;;;;;;4.00;1.75;;;;;32.47;45.51;100749.88;5017864;28;45349;-66
2023/08/14 10:55:39;;;;;;;;;3.75;2.25;;;;;32.94;45.19;100751.19;5022029;28;45471;-65
2023/08/14 10:58:29;;;;;;;;;4.00;2.50;;;;;33.41;44.72;100743.38;5019099;28;45392;-65
2023/08/14 11:00:55;;;;;;;;;3.75;3.75;;;;;33.81;44.44;100739.78;5028953;28;45189;-66
2023/08/14 11:03:21;;;;;;;;;2.25;1.75;;;;;34.21;44.03;100750.69;5026793;28;45344;-65
2023/08/14 11:05:47;;;;;;;;;3.00;1.25;;;;;34.60;43.97;100757.19;5038871;28;47235;-65
2023/08/14 11:08:13;;;;;;;;;4.00;2.75;;;;;34.95;43.59;100749.47;5038969;28;45183;-64
2023/08/14 11:10:40;;;;;;;;;5.50;4.00;;;;;35.30;42.73;100760.78;5038833;28;45472;-65
2023/08/14 11:13:09;;;;;;;;;2.75;1.75;;;;;35.63;42.17;100744.94;5038714;28;45540;-64
2023/08/14 11:15:36;;;;;;;;;2.75;2.75;;;;;35.95;42.13;100747.53;5038861;28;45285;-65
2023/08/14 11:18:05;;;;;;;;;3.50;2.25;;;;;36.23;41.68;100739.50;5038852;28;45436;-65
2023/08/14 11:20:33;;;;;;;;;2.75;2.00;;;;;36.56;41.05;100749.19;5021193;28;45296;-64
2023/08/14 11:22:59;;;;;;;;;0.75;0.00;;;;;36.84;41.44;100741.03;5020555;28;45541;-64